createdAt,value
2022-10-07T00:02:12.092Z,102548.91
2022-10-07T00:04:46.200Z,102557.66
2022-10-07T00:07:18.724Z,102548.84
2022-10-07T00:09:51.212Z,102548.84
2022-10-07T00:12:23.809Z,102544.41
2022-10-07T00:14:56.347Z,102546.13
2022-10-07T00:17:28.800Z,102535.56
2022-10-07T00:20:01.541Z,102534.66
2022-10-07T00:22:34.045Z,102541.66
2022-10-07T00:25:06.845Z,102540.78
2022-10-07T00:27:39.342Z,102539.06
2022-10-07T00:30:12.760Z,102537.34
2022-10-07T00:32:45.365Z,102529.41
2022-10-07T00:35:17.855Z,102535.53
2022-10-07T00:37:50.329Z,102533.72
2022-10-07T00:40:22.864Z,102522.22
2022-10-07T00:42:55.358Z,102520.44
2022-10-07T00:45:28.341Z,102528.31
2022-10-07T00:48:00.842Z,102522.13
2022-10-07T00:50:33.506Z,102522.13
2022-10-07T00:53:06.006Z,102517.72
2022-10-07T00:55:38.509Z,102517.59
2022-10-07T00:58:11.159Z,102512.31
2022-10-07T01:00:43.644Z,102515.72
2022-10-07T01:03:16.508Z,102498.97
2022-10-07T01:05:49.009Z,102499.84
2022-10-07T01:08:23.490Z,102502.47
2022-10-07T01:11:28.007Z,102492.75
2022-10-07T01:14:44.947Z,102495.31
2022-10-07T01:17:44.232Z,102489.09
2022-10-07T01:20:39.372Z,102486.44
2022-10-07T01:23:32.721Z,102482.84
2022-10-07T01:26:09.277Z,102483.69
2022-10-07T01:28:53.964Z,102478.56
2022-10-07T01:31:41.688Z,102473.28
2022-10-07T01:34:17.444Z,102468.00
2022-10-07T01:36:56.778Z,102466.38
2022-10-07T01:39:40.617Z,102462.00
2022-10-07T01:42:15.491Z,102453.16
2022-10-07T01:44:54.520Z,102447.09
2022-10-07T01:47:28.088Z,102447.97
2022-10-07T01:50:00.584Z,102443.56
2022-10-07T01:52:43.081Z,102434.78
2022-10-07T01:55:58.740Z,102431.22
2022-10-07T01:59:08.106Z,102430.31
2022-10-07T02:02:01.496Z,102418.94
2022-10-07T02:05:09.211Z,102420.63
2022-10-07T02:08:06.742Z,102410.94
2022-10-07T02:11:03.614Z,102415.22
2022-10-07T02:14:14.516Z,102405.50
2022-10-07T02:16:51.684Z,102408.97
2022-10-07T02:19:39.474Z,102405.41
2022-10-07T02:22:17.240Z,102401.06
2022-10-07T02:25:00.360Z,102399.28
2022-10-07T02:27:39.472Z,102396.59
2022-10-07T02:30:18.444Z,102393.94
2022-10-07T02:32:57.288Z,102393.03
2022-10-07T02:35:59.501Z,102384.22
2022-10-07T02:38:32.286Z,102385.97
2022-10-07T02:41:41.908Z,102381.56
2022-10-07T02:44:26.070Z,102375.34
2022-10-07T02:47:08.697Z,102380.53
2022-10-07T02:49:43.505Z,102366.34
2022-10-07T02:52:20.124Z,102362.69
2022-10-07T02:54:59.542Z,102356.56
2022-10-07T02:57:39.547Z,102364.47
2022-10-07T03:00:14.419Z,102362.69
2022-10-07T03:03:00.397Z,102348.63
2022-10-07T03:05:35.283Z,102353.06
2022-10-07T03:08:10.889Z,102345.13
2022-10-07T03:10:43.793Z,102346.81
2022-10-07T03:13:16.337Z,102343.28
2022-10-07T03:15:48.934Z,102342.34
2022-10-07T03:18:28.234Z,102337.03
2022-10-07T03:21:00.993Z,102341.38
2022-10-07T03:23:33.472Z,102338.72
2022-10-07T03:26:05.976Z,102330.84
2022-10-07T03:28:38.465Z,102339.56
2022-10-07T03:31:13.994Z,102333.34
2022-10-07T03:33:46.498Z,102329.78
2022-10-07T03:36:19.422Z,102323.72
2022-10-07T03:38:52.141Z,102318.47
2022-10-07T03:41:24.718Z,102321.09
2022-10-07T03:43:59.346Z,102321.97
2022-10-07T03:46:31.966Z,102319.31
2022-10-07T03:49:04.773Z,102312.34
2022-10-07T03:51:37.441Z,102313.19
2022-10-07T03:54:10.105Z,102313.19
2022-10-07T03:56:42.580Z,102312.22
2022-10-07T03:59:15.041Z,102313.06
2022-10-07T04:01:47.882Z,102317.44
2022-10-07T04:04:20.546Z,102319.19
2022-10-07T04:06:53.040Z,102312.13
2022-10-07T04:09:25.581Z,102315.69
2022-10-07T04:11:58.099Z,102313.91
2022-10-07T04:14:30.660Z,102311.25
2022-10-07T04:17:05.889Z,102312.00
2022-10-07T04:19:38.440Z,102306.72
2022-10-07T04:22:10.925Z,102304.91
2022-10-07T04:24:43.394Z,102298.63
2022-10-07T04:27:33.925Z,102299.47
2022-10-07T04:30:09.761Z,102292.38
2022-10-07T04:32:42.255Z,102297.56
2022-10-07T04:35:15.021Z,102295.81
2022-10-07T04:37:53.828Z,102298.47
2022-10-07T04:40:27.466Z,102299.31
2022-10-07T04:43:18.535Z,102299.31
2022-10-07T04:46:01.493Z,102301.06
2022-10-07T04:48:35.810Z,102298.41
2022-10-07T04:51:09.563Z,102296.63
2022-10-07T04:53:42.069Z,102291.28
2022-10-07T04:56:14.514Z,102292.13
2022-10-07T04:58:47.075Z,102289.44
2022-10-07T05:01:19.639Z,102282.41
2022-10-07T05:03:52.300Z,102286.00
2022-10-07T05:06:24.956Z,102280.69
2022-10-07T05:08:57.501Z,102282.41
2022-10-07T05:11:30.050Z,102269.25
2022-10-07T05:14:02.556Z,102273.56
2022-10-07T05:16:35.106Z,102276.22
2022-10-07T05:19:07.872Z,102275.44
2022-10-07T05:21:40.481Z,102269.31
2022-10-07T05:24:12.990Z,102263.16
2022-10-07T05:26:45.485Z,102258.75
2022-10-07T05:29:17.958Z,102265.75
2022-10-07T05:31:50.705Z,102268.41
2022-10-07T05:34:23.325Z,102264.94
2022-10-07T05:36:55.786Z,102264.06
2022-10-07T05:39:28.294Z,102263.13
2022-10-07T05:42:01.830Z,102256.25
2022-10-07T05:44:37.820Z,102257.16
2022-10-07T05:47:10.357Z,102247.59
2022-10-07T05:49:43.114Z,102257.25
2022-10-07T05:52:15.643Z,102248.53
2022-10-07T05:54:48.131Z,102252.06
2022-10-07T05:57:20.597Z,102246.94
2022-10-07T05:59:53.235Z,102242.59
2022-10-07T06:02:26.096Z,102240.81
2022-10-07T06:04:58.603Z,102246.16
2022-10-07T06:07:31.106Z,102238.28
2022-10-07T06:10:22.474Z,102238.34
2022-10-07T06:13:07.390Z,102233.22
2022-10-07T06:15:39.910Z,102238.53
2022-10-07T06:18:12.492Z,102235.09
2022-10-07T06:21:12.505Z,102237.78
2022-10-07T06:23:51.880Z,102231.75
2022-10-07T06:26:24.532Z,102224.75
2022-10-07T06:28:57.004Z,102234.53
2022-10-07T06:31:29.583Z,102234.59
2022-10-07T06:34:02.157Z,102231.22
2022-10-07T06:36:34.679Z,102225.16
2022-10-07T06:39:07.191Z,102228.78
2022-10-07T06:41:39.711Z,102234.16
2022-10-07T06:44:12.206Z,102233.44
2022-10-07T06:46:44.662Z,102231.88
2022-10-07T06:49:17.156Z,102230.22
2022-10-07T06:51:49.609Z,102228.50
2022-10-07T06:54:22.209Z,102236.53
2022-10-07T06:56:54.713Z,102239.38
2022-10-07T06:59:27.238Z,102230.78
2022-10-07T07:01:59.783Z,102237.97
2022-10-07T07:04:32.314Z,102238.03
2022-10-07T07:07:05.327Z,102241.66
2022-10-07T07:09:37.769Z,102238.25
2022-10-07T07:12:10.244Z,102234.84
2022-10-07T07:14:44.951Z,102234.91
2022-10-07T07:17:18.968Z,102236.81
2022-10-07T07:19:51.506Z,102236.00
2022-10-07T07:22:24.028Z,102237.84
2022-10-07T07:24:56.524Z,102244.09
2022-10-07T07:27:29.241Z,102244.19
2022-10-07T07:30:02.866Z,102239.00
2022-10-07T07:32:35.407Z,102242.63
2022-10-07T07:35:09.084Z,102239.25
2022-10-07T07:37:45.433Z,102233.16
2022-10-07T07:40:20.080Z,102236.81
2022-10-07T07:42:55.628Z,102241.28
2022-10-07T07:45:29.093Z,102229.94
2022-10-07T07:48:01.582Z,102238.81
2022-10-07T07:50:34.602Z,102226.56
2022-10-07T07:53:07.110Z,102231.06
2022-10-07T07:55:39.586Z,102231.09
2022-10-07T07:58:12.150Z,102232.06
2022-10-07T08:00:44.661Z,102225.06
2022-10-07T08:03:17.186Z,102241.00
2022-10-07T08:05:49.767Z,102228.72
2022-10-07T08:08:22.649Z,102226.09
2022-10-07T08:10:55.153Z,102222.66
2022-10-07T08:13:27.686Z,102224.44
2022-10-07T08:16:00.296Z,102224.50
2022-10-07T08:18:33.117Z,102216.59
2022-10-07T08:21:07.744Z,102221.94
2022-10-07T08:23:41.187Z,102215.78
2022-10-07T08:26:14.945Z,102218.47
2022-10-07T08:28:48.997Z,102214.97
2022-10-07T08:31:22.829Z,102219.38
2022-10-07T08:34:00.201Z,102217.63
2022-10-07T08:36:33.704Z,102213.19
2022-10-07T08:39:07.334Z,102213.19
2022-10-07T08:41:58.978Z,102211.50
2022-10-07T08:44:41.051Z,102207.94
2022-10-07T08:47:47.763Z,102193.78
2022-10-07T08:50:46.933Z,102192.00
2022-10-07T08:53:30.421Z,102187.56
2022-10-07T08:56:17.592Z,102187.53
2022-10-07T08:59:12.079Z,102183.09
2022-10-07T09:02:00.168Z,102183.06
2022-10-07T09:04:54.716Z,102171.56
2022-10-07T09:07:48.014Z,102178.63
2022-10-07T09:10:32.917Z,102172.38
2022-10-07T09:13:24.617Z,102169.69
2022-10-07T09:16:13.842Z,102168.72
2022-10-07T09:18:53.989Z,102179.31
2022-10-07T09:21:43.674Z,102172.16
2022-10-07T09:24:24.550Z,102155.22
2022-10-07T09:27:01.344Z,102155.16
2022-10-07T09:29:33.903Z,102157.75
2022-10-07T09:32:06.431Z,102153.19
2022-10-07T09:34:38.938Z,102143.34
2022-10-07T09:37:27.453Z,102150.34
2022-10-07T09:40:27.430Z,102141.44
2022-10-07T09:43:01.875Z,102137.78
2022-10-07T09:45:34.978Z,102135.88
2022-10-07T09:48:21.349Z,102140.34
2022-10-07T09:51:24.999Z,102128.78
2022-10-07T09:54:16.869Z,102133.09
2022-10-07T09:56:59.518Z,102133.00
2022-10-07T09:59:36.070Z,102123.00
2022-10-07T10:02:15.105Z,102123.81
2022-10-07T10:04:54.794Z,102120.13
2022-10-07T10:07:33.060Z,102121.09
2022-10-07T10:10:21.401Z,102113.91
2022-10-07T10:12:58.167Z,102117.31
2022-10-07T10:15:39.461Z,102104.81
2022-10-07T10:18:35.165Z,102101.16
2022-10-07T10:21:29.829Z,102099.28
2022-10-07T10:24:15.311Z,102092.88
2022-10-07T10:27:17.173Z,102091.13
2022-10-07T10:30:05.557Z,102081.47
2022-10-07T10:33:01.029Z,102085.69
2022-10-07T10:36:06.034Z,102075.72
2022-10-07T10:39:02.531Z,102071.97
2022-10-07T10:42:00.049Z,102066.44
2022-10-07T10:44:44.301Z,102069.91
2022-10-07T10:48:09.673Z,102054.56
2022-10-07T10:51:08.176Z,102051.78
2022-10-07T10:54:05.214Z,102046.38
2022-10-07T10:57:14.798Z,102041.06
2022-10-07T11:00:12.817Z,102042.72
2022-10-07T11:03:26.621Z,102035.56
2022-10-07T11:06:05.813Z,102040.59
2022-10-07T11:08:38.984Z,102033.31
2022-10-07T11:11:22.729Z,102034.22
2022-10-07T11:14:04.634Z,102027.00
2022-10-07T11:16:54.039Z,102023.50
2022-10-07T11:19:43.149Z,102015.31
2022-10-07T11:22:32.828Z,102017.84
2022-10-07T11:25:30.464Z,102006.94
2022-10-07T11:28:21.236Z,102008.78
2022-10-07T11:31:27.164Z,102000.75
2022-10-07T11:34:21.710Z,101989.03
2022-10-07T11:37:09.788Z,101986.13
2022-10-07T11:39:42.702Z,101984.03
2022-10-07T11:42:26.101Z,101965.06
2022-10-07T11:45:06.800Z,101961.47
2022-10-07T11:47:56.190Z,101966.81
2022-10-07T11:50:41.135Z,101956.13
2022-10-07T11:53:28.415Z,101951.72
2022-10-07T11:56:16.343Z,101948.31
2022-10-07T11:59:03.091Z,101941.94
2022-10-07T12:01:35.547Z,101935.50
2022-10-07T12:04:24.761Z,101933.56
2022-10-07T12:07:34.692Z,101920.91
2022-10-07T12:10:23.129Z,101918.13
2022-10-07T12:13:01.715Z,101913.44
2022-10-07T12:15:43.725Z,101907.44
2022-10-07T12:18:18.936Z,101894.09
2022-10-07T12:20:51.388Z,101904.94
2022-10-07T12:23:25.801Z,101902.25
2022-10-07T12:26:30.535Z,101887.38
2022-10-07T12:29:04.390Z,101888.06
2022-10-07T12:31:42.872Z,101883.41
2022-10-07T12:34:39.291Z,101880.19
2022-10-07T12:37:39.917Z,101876.28
2022-10-07T12:40:29.784Z,101872.09
2022-10-07T12:43:37.487Z,101859.97
2022-10-07T12:46:15.271Z,101856.19
2022-10-07T12:49:30.252Z,101845.53
2022-10-07T12:52:41.104Z,101846.19
2022-10-07T12:55:28.542Z,101844.16
2022-10-07T12:58:45.914Z,101834.28
2022-10-07T13:01:39.078Z,101826.75
2022-10-07T13:05:08.616Z,101823.28
2022-10-07T13:09:02.806Z,101824.13
2022-10-07T13:12:24.475Z,101815.06
2022-10-07T13:15:41.384Z,101815.75
2022-10-07T13:18:26.503Z,101812.03
2022-10-07T13:21:30.733Z,101805.75
2022-10-07T13:24:03.742Z,101811.94
2022-10-07T13:26:37.276Z,101795.81
2022-10-07T13:29:26.936Z,101789.56
2022-10-07T13:32:09.966Z,101795.75
2022-10-07T13:34:46.411Z,101785.25
2022-10-07T13:37:38.062Z,101783.34
2022-10-07T13:40:35.541Z,101773.63
2022-10-07T13:43:09.184Z,101782.81
2022-10-07T13:45:45.877Z,101776.63
2022-10-07T13:48:34.708Z,101773.25
2022-10-07T13:51:07.899Z,101765.75
2022-10-07T13:53:41.516Z,101759.44
2022-10-07T13:56:25.200Z,101763.88
2022-10-07T13:58:59.653Z,101748.63
2022-10-07T14:01:38.824Z,101752.69
2022-10-07T14:04:25.411Z,101755.56
2022-10-07T14:07:13.202Z,101750.03
2022-10-07T14:10:01.921Z,101745.69
2022-10-07T14:12:46.127Z,101731.16
2022-10-07T14:15:27.100Z,101734.00
2022-10-07T14:18:11.262Z,101730.28
2022-10-07T14:20:55.245Z,101725.66
2022-10-07T14:23:35.185Z,101718.38
2022-10-07T14:26:11.025Z,101713.63
2022-10-07T14:28:46.898Z,101714.38
2022-10-07T14:31:39.766Z,101717.88
2022-10-07T14:34:38.928Z,101700.03
2022-10-07T14:37:17.298Z,101698.44
2022-10-07T14:39:53.035Z,101698.50
2022-10-07T14:42:32.216Z,101696.53
2022-10-07T14:45:09.594Z,101697.59
2022-10-07T14:47:44.260Z,101691.47
2022-10-07T14:50:19.572Z,101692.53
2022-10-07T14:52:52.929Z,101688.66
2022-10-07T14:55:29.133Z,101686.75
2022-10-07T14:58:01.645Z,101682.16
2022-10-07T15:00:38.799Z,101685.00
2022-10-07T15:03:12.264Z,101675.44
2022-10-07T15:05:44.777Z,101678.88
2022-10-07T15:08:17.255Z,101675.72
2022-10-07T15:10:49.718Z,101672.41
2022-10-07T15:13:22.243Z,101675.00
2022-10-07T15:15:54.738Z,101673.16
2022-10-07T15:18:27.206Z,101665.28
2022-10-07T15:20:59.716Z,101666.97
2022-10-07T15:23:32.218Z,101662.50
2022-10-07T15:26:05.958Z,101655.41
2022-10-07T15:28:38.511Z,101654.59
2022-10-07T15:31:11.150Z,101654.72
2022-10-07T15:33:44.510Z,101656.88
2022-10-07T15:36:17.829Z,101642.94
2022-10-07T15:38:50.580Z,101642.28
2022-10-07T15:41:32.493Z,101640.75
2022-10-07T15:44:16.142Z,101639.09
2022-10-07T15:46:53.752Z,101631.41
2022-10-07T15:49:26.470Z,101621.88
2022-10-07T15:51:59.422Z,101624.53
2022-10-07T15:54:32.624Z,101623.84
2022-10-07T15:57:05.689Z,101613.56
2022-10-07T15:59:38.332Z,101622.66
2022-10-07T16:02:21.378Z,101618.50
2022-10-07T16:04:54.149Z,101621.25
2022-10-07T16:07:30.183Z,101613.09
2022-10-07T16:10:02.801Z,101616.34
2022-10-07T16:12:35.288Z,101615.63
2022-10-07T16:15:08.132Z,101614.97
2022-10-07T16:17:40.594Z,101613.34
2022-10-07T16:20:15.359Z,101611.19
2022-10-07T16:22:48.252Z,101619.44
2022-10-07T16:25:20.976Z,101615.63
2022-10-07T16:28:12.263Z,101624.97
2022-10-07T16:30:49.964Z,101621.31
2022-10-07T16:33:22.721Z,101619.00
2022-10-07T16:35:58.388Z,101623.72
2022-10-07T16:38:31.617Z,101624.09
2022-10-07T16:41:04.369Z,101619.97
2022-10-07T16:43:37.002Z,101621.28
2022-10-07T16:46:15.608Z,101611.81
2022-10-07T16:48:50.292Z,101619.25
2022-10-07T16:51:35.470Z,101613.44
2022-10-07T16:54:17.013Z,101615.63
2022-10-07T16:56:52.881Z,101614.97
2022-10-07T16:59:26.345Z,101610.81
2022-10-07T17:02:02.500Z,101620.03
2022-10-07T17:04:35.571Z,101618.47
2022-10-07T17:07:08.208Z,101618.75
2022-10-07T17:09:41.018Z,101615.41
2022-10-07T17:12:16.276Z,101612.91
2022-10-07T17:14:49.001Z,101624.59
2022-10-07T17:17:21.694Z,101622.09
2022-10-07T17:19:54.296Z,101616.09
2022-10-07T17:22:26.809Z,101611.00
2022-10-07T17:24:59.812Z,101620.88
2022-10-07T17:27:32.319Z,101613.97
2022-10-07T17:30:05.625Z,101614.09
2022-10-07T17:32:38.143Z,101615.97
2022-10-07T17:35:10.659Z,101620.50
2022-10-07T17:37:43.339Z,101615.28
2022-10-07T17:40:16.490Z,101611.88
2022-10-07T17:42:48.993Z,101619.03
2022-10-07T17:45:22.301Z,101620.88
2022-10-07T17:47:57.477Z,101618.34
2022-10-07T17:50:31.759Z,101618.38
2022-10-07T17:53:05.363Z,101622.84
2022-10-07T17:55:40.545Z,101620.25
2022-10-07T17:58:13.130Z,101623.84
2022-10-07T18:00:45.679Z,101623.00
2022-10-07T18:03:18.314Z,101620.38
2022-10-07T18:05:53.907Z,101617.78
2022-10-07T18:08:26.872Z,101616.97
2022-10-07T18:10:59.716Z,101620.50
2022-10-07T18:13:51.800Z,101621.41
2022-10-07T18:16:24.381Z,101611.72
2022-10-07T18:18:57.477Z,101614.38
2022-10-07T18:21:31.549Z,101609.97
2022-10-07T18:24:08.153Z,101610.91
2022-10-07T18:26:42.564Z,101605.63
2022-10-07T18:29:17.260Z,101603.91
2022-10-07T18:31:49.919Z,101603.91
2022-10-07T18:34:23.486Z,101602.19
2022-10-07T18:36:57.279Z,101604.88
2022-10-07T18:39:30.792Z,101593.41
2022-10-07T18:42:04.456Z,101604.03
2022-10-07T18:44:37.008Z,101595.25
2022-10-07T18:47:09.501Z,101601.44
2022-10-07T18:49:42.003Z,101597.09
2022-10-07T18:52:14.609Z,101602.44
2022-10-07T18:54:47.123Z,101596.25
2022-10-07T18:57:20.938Z,101593.69
2022-10-07T18:59:53.458Z,101601.66
2022-10-07T19:02:26.124Z,101596.38
2022-10-07T19:04:58.711Z,101592.81
2022-10-07T19:07:31.463Z,101587.50
2022-10-07T19:10:04.465Z,101593.72
2022-10-07T19:12:55.493Z,101586.66
2022-10-07T19:15:27.990Z,101595.53
2022-10-07T19:18:00.787Z,101597.28
2022-10-07T19:20:36.533Z,101595.56
2022-10-07T19:23:11.049Z,101596.50
2022-10-07T19:25:46.564Z,101597.34
2022-10-07T19:28:19.838Z,101596.47
2022-10-07T19:30:55.117Z,101586.72
2022-10-07T19:33:27.709Z,101587.56
2022-10-07T19:36:02.456Z,101584.03
2022-10-07T19:38:34.991Z,101584.94
2022-10-07T19:41:08.405Z,101586.72
2022-10-07T19:43:42.875Z,101573.47
2022-10-07T19:46:17.053Z,101571.72
2022-10-07T19:48:57.091Z,101577.00
2022-10-07T19:51:36.537Z,101568.22
2022-10-07T19:54:10.734Z,101569.16
2022-10-07T19:56:44.435Z,101580.66
2022-10-07T19:59:17.052Z,101578.00
2022-10-07T20:01:51.821Z,101575.34
2022-10-07T20:04:24.456Z,101571.81
2022-10-07T20:06:58.725Z,101570.09
2022-10-07T20:09:31.213Z,101573.69
2022-10-07T20:12:04.772Z,101564.88
2022-10-07T20:14:39.394Z,101563.09
2022-10-07T20:17:11.970Z,101561.28
2022-10-07T20:19:44.487Z,101558.59
2022-10-07T20:22:17.008Z,101563.00
2022-10-07T20:24:49.453Z,101565.72
2022-10-07T20:27:21.960Z,101564.88
2022-10-07T20:29:57.353Z,101565.75
2022-10-07T20:32:33.951Z,101560.50
2022-10-07T20:35:09.775Z,101558.72
2022-10-07T20:37:42.242Z,101553.44
2022-10-07T20:40:33.487Z,101559.63
2022-10-07T20:43:05.937Z,101551.66
2022-10-07T20:45:56.231Z,101542.88
2022-10-07T20:48:31.340Z,101544.66
2022-10-07T20:51:08.808Z,101539.31
2022-10-07T20:53:41.267Z,101543.78
2022-10-07T20:56:13.867Z,101542.03
2022-10-07T20:58:46.419Z,101540.28
2022-10-07T21:01:19.004Z,101542.97
2022-10-07T21:03:51.520Z,101547.41
2022-10-07T21:06:24.451Z,101545.59
2022-10-07T21:08:58.018Z,101542.06
2022-10-07T21:11:30.587Z,101541.19
2022-10-07T21:14:03.319Z,101543.84
2022-10-07T21:16:36.353Z,101539.47
2022-10-07T21:19:09.363Z,101535.06
2022-10-07T21:21:41.970Z,101538.63
2022-10-07T21:24:14.542Z,101538.66
2022-10-07T21:26:47.397Z,101539.53
2022-10-07T21:29:19.946Z,101529.81
2022-10-07T21:31:53.271Z,101530.72
2022-10-07T21:34:26.012Z,101529.88
2022-10-07T21:36:59.047Z,101529.00
2022-10-07T21:39:31.771Z,101528.19
2022-10-07T21:42:04.332Z,101527.34
2022-10-07T21:44:36.769Z,101520.34
2022-10-07T21:47:09.283Z,101530.97
2022-10-07T21:49:41.775Z,101518.66
2022-10-07T21:52:14.483Z,101516.00
2022-10-07T21:54:47.025Z,101522.19
2022-10-07T21:57:20.068Z,101523.94
2022-10-07T21:59:53.722Z,101522.22
2022-10-07T22:02:29.252Z,101517.78
2022-10-07T22:05:01.829Z,101511.63
2022-10-07T22:07:53.162Z,101515.22
2022-10-07T22:10:25.623Z,101515.25
2022-10-07T22:12:58.102Z,101520.59
2022-10-07T22:15:30.679Z,101514.44
2022-10-07T22:18:04.244Z,101510.91
2022-10-07T22:20:38.819Z,101516.19
2022-10-07T22:23:11.309Z,101502.94
2022-10-07T22:25:44.321Z,101507.31
2022-10-07T22:28:16.875Z,101504.63
2022-10-07T22:30:49.449Z,101505.38
2022-10-07T22:33:21.946Z,101492.06
2022-10-07T22:35:54.443Z,101496.34
2022-10-07T22:38:28.677Z,101486.53
2022-10-07T22:41:10.548Z,101483.81
2022-10-07T22:43:46.047Z,101488.09
2022-10-07T22:46:25.978Z,101485.38
2022-10-07T22:48:58.966Z,101472.88
2022-10-07T22:51:31.421Z,101478.06
2022-10-07T22:54:04.259Z,101470.94
2022-10-07T22:56:36.875Z,101479.69
2022-10-07T22:59:10.903Z,101473.44
2022-10-07T23:01:43.340Z,101468.06
2022-10-07T23:04:15.981Z,101470.66
2022-10-07T23:06:48.635Z,101472.41
2022-10-07T23:09:21.130Z,101467.94
2022-10-07T23:11:53.593Z,101468.81
2022-10-07T23:14:26.094Z,101467.91
2022-10-07T23:16:58.790Z,101462.59
2022-10-07T23:19:31.317Z,101465.22
2022-10-07T23:22:05.440Z,101461.59
2022-10-07T23:24:38.389Z,101462.44
2022-10-07T23:27:10.892Z,101457.13
2022-10-07T23:29:43.379Z,101453.53
2022-10-07T23:32:15.877Z,101451.75
2022-10-07T23:34:48.374Z,101442.00
2022-10-07T23:37:20.857Z,101443.78
2022-10-07T23:39:53.335Z,101442.88
2022-10-07T23:42:25.869Z,101442.00
2022-10-07T23:45:03.164Z,101442.91
2022-10-07T23:47:35.696Z,101434.97
2022-10-07T23:50:09.424Z,101436.69
2022-10-07T23:52:42.391Z,101433.28
2022-10-07T23:55:14.935Z,101423.63
2022-10-07T23:57:47.402Z,101426.47
